createdAt,value
2023-04-18T00:01:24.877Z,28.65
2023-04-18T00:03:52.029Z,26.98
2023-04-18T00:06:19.507Z,25.63
2023-04-18T00:08:46.666Z,23.48
2023-04-18T00:11:13.403Z,22.63
2023-04-18T00:13:40.780Z,24.45
2023-04-18T00:16:08.737Z,24.00
2023-04-18T00:18:36.906Z,24.63
2023-04-18T00:21:04.484Z,21.33
2023-04-18T00:23:31.231Z,22.60
2023-04-18T00:25:58.030Z,21.92
2023-04-18T00:28:24.922Z,18.98
2023-04-18T00:30:51.781Z,21.10
2023-04-18T00:33:18.775Z,19.98
2023-04-18T00:35:45.726Z,17.98
2023-04-18T00:38:12.426Z,22.15
2023-04-18T00:40:40.227Z,20.65
2023-04-18T00:43:12.610Z,23.13
2023-04-18T00:45:39.911Z,23.23
2023-04-18T00:48:07.246Z,23.70
2023-04-18T00:50:34.161Z,19.33
2023-04-18T00:53:01.053Z,19.92
2023-04-18T00:55:28.784Z,16.83
2023-04-18T00:57:55.923Z,18.60
2023-04-18T01:00:22.768Z,20.52
2023-04-18T01:02:53.071Z,20.67
2023-04-18T01:05:21.375Z,18.65
2023-04-18T01:07:48.626Z,19.70
2023-04-18T01:10:15.486Z,20.50
2023-04-18T01:12:42.403Z,18.85
2023-04-18T01:15:09.487Z,19.17
2023-04-18T01:17:36.285Z,19.15
2023-04-18T01:20:06.296Z,17.47
2023-04-18T01:22:33.842Z,20.23
2023-04-18T01:25:00.765Z,19.63
2023-04-18T01:27:27.548Z,18.92
2023-04-18T01:29:54.277Z,18.30
2023-04-18T01:32:22.042Z,19.80
2023-04-18T01:34:48.927Z,14.82
2023-04-18T01:37:15.619Z,19.60
2023-04-18T01:39:42.308Z,16.75
2023-04-18T01:42:09.078Z,16.10
2023-04-18T01:44:35.852Z,15.20
2023-04-18T01:47:02.786Z,15.60
2023-04-18T01:49:29.687Z,15.45
2023-04-18T01:51:56.366Z,14.25
2023-04-18T01:54:23.404Z,14.93
2023-04-18T01:56:50.138Z,15.83
2023-04-18T01:59:16.805Z,14.98
2023-04-18T02:01:43.538Z,14.57
2023-04-18T02:04:10.510Z,10.50
2023-04-18T02:06:37.324Z,15.38
2023-04-18T02:09:04.114Z,13.73
2023-04-18T02:11:30.893Z,14.10
2023-04-18T02:13:59.691Z,13.32
2023-04-18T02:16:26.623Z,12.98
2023-04-18T02:18:53.597Z,11.50
2023-04-18T02:21:21.799Z,13.87
2023-04-18T02:23:48.786Z,14.30
2023-04-18T02:26:15.737Z,12.90
2023-04-18T02:28:42.418Z,12.45
2023-04-18T02:31:14.576Z,11.32
2023-04-18T02:33:45.813Z,12.13
2023-04-18T02:36:13.075Z,15.45
2023-04-18T02:38:39.773Z,12.65
2023-04-18T02:41:06.661Z,13.32
2023-04-18T02:43:33.554Z,14.75
2023-04-18T02:46:00.341Z,14.10
2023-04-18T02:48:27.367Z,14.30
2023-04-18T02:50:54.120Z,13.90
2023-04-18T02:53:23.872Z,11.60
2023-04-18T02:55:50.656Z,14.00
2023-04-18T02:58:17.383Z,13.63
2023-04-18T03:00:44.067Z,13.40
2023-04-18T03:03:11.017Z,15.93
2023-04-18T03:05:39.547Z,15.20
2023-04-18T03:08:06.355Z,12.75
2023-04-18T03:10:33.207Z,13.13
2023-04-18T03:12:59.989Z,16.70
2023-04-18T03:15:26.891Z,13.95
2023-04-18T03:17:53.795Z,13.25
2023-04-18T03:20:20.688Z,15.27
2023-04-18T03:22:47.395Z,13.83
2023-04-18T03:25:14.362Z,11.55
2023-04-18T03:27:42.865Z,15.32
2023-04-18T03:30:10.640Z,12.18
2023-04-18T03:32:38.653Z,12.00
2023-04-18T03:35:05.890Z,14.50
2023-04-18T03:37:32.642Z,12.15
2023-04-18T03:39:59.472Z,12.65
2023-04-18T03:42:26.232Z,15.00
2023-04-18T03:44:53.019Z,13.15
2023-04-18T03:47:19.785Z,13.60
2023-04-18T03:49:46.608Z,16.02
2023-04-18T03:52:13.315Z,16.48
2023-04-18T03:54:40.062Z,16.00
2023-04-18T03:57:06.833Z,16.70
2023-04-18T03:59:33.554Z,11.87
2023-04-18T04:02:00.479Z,12.95
2023-04-18T04:04:27.842Z,16.52
2023-04-18T04:06:54.666Z,13.48
2023-04-18T04:09:21.492Z,17.63
2023-04-18T04:11:48.429Z,13.73
2023-04-18T04:14:15.476Z,16.30
2023-04-18T04:16:42.701Z,13.68
2023-04-18T04:19:09.634Z,16.67
2023-04-18T04:21:36.551Z,16.58
2023-04-18T04:24:03.301Z,17.47
2023-04-18T04:26:30.798Z,17.08
2023-04-18T04:28:57.731Z,15.55
2023-04-18T04:31:24.543Z,15.88
2023-04-18T04:33:51.360Z,14.50
2023-04-18T04:36:19.113Z,12.03
2023-04-18T04:38:46.099Z,11.32
2023-04-18T04:41:12.881Z,14.98
2023-04-18T04:43:41.367Z,13.20
2023-04-18T04:46:08.837Z,15.13
2023-04-18T04:48:35.624Z,15.93
2023-04-18T04:51:02.387Z,14.98
2023-04-18T04:53:32.736Z,14.55
2023-04-18T04:55:59.550Z,13.68
2023-04-18T04:58:26.701Z,13.30
2023-04-18T05:00:53.863Z,10.40
2023-04-18T05:03:21.051Z,12.88
2023-04-18T05:05:48.413Z,15.30
2023-04-18T05:08:15.310Z,17.65
2023-04-18T05:10:43.223Z,20.08
2023-04-18T05:13:10.071Z,17.10
2023-04-18T05:15:36.912Z,17.00
2023-04-18T05:18:03.805Z,16.52
2023-04-18T05:20:30.551Z,17.35
2023-04-18T05:22:57.255Z,20.40
2023-04-18T05:25:24.066Z,15.90
2023-04-18T05:27:51.187Z,13.20
2023-04-18T05:30:18.174Z,14.02
2023-04-18T05:32:44.949Z,16.80
2023-04-18T05:35:11.799Z,17.33
2023-04-18T05:37:38.610Z,16.57
2023-04-18T05:40:06.055Z,16.40
2023-04-18T05:42:33.349Z,15.98
2023-04-18T05:45:00.139Z,16.05
2023-04-18T05:47:28.650Z,14.82
2023-04-18T05:49:55.986Z,13.73
2023-04-18T05:52:22.810Z,16.85
2023-04-18T05:54:49.824Z,17.95
2023-04-18T05:57:16.519Z,16.48
2023-04-18T05:59:43.815Z,16.83
2023-04-18T06:02:13.555Z,11.83
2023-04-18T06:04:42.701Z,12.73
2023-04-18T06:07:10.203Z,18.85
2023-04-18T06:09:37.111Z,16.70
2023-04-18T06:12:04.167Z,12.18
2023-04-18T06:14:31.006Z,14.73
2023-04-18T06:16:57.973Z,18.85
2023-04-18T06:19:25.369Z,19.52
2023-04-18T06:21:53.462Z,14.50
2023-04-18T06:24:21.479Z,16.30
2023-04-18T06:26:51.257Z,13.70
2023-04-18T06:29:18.286Z,12.82
2023-04-18T06:31:46.754Z,13.65
2023-04-18T06:34:14.188Z,20.08
2023-04-18T06:36:41.131Z,15.38
2023-04-18T06:39:08.119Z,18.40
2023-04-18T06:41:34.954Z,17.60
2023-04-18T06:44:03.318Z,13.95
2023-04-18T06:46:31.893Z,16.30
2023-04-18T06:48:58.955Z,18.20
2023-04-18T06:51:25.967Z,12.40
2023-04-18T06:53:53.744Z,17.55
2023-04-18T06:56:21.255Z,15.77
2023-04-18T06:58:48.499Z,14.25
2023-04-18T07:01:16.077Z,14.30
2023-04-18T07:03:42.850Z,13.77
2023-04-18T07:06:10.927Z,16.10
2023-04-18T07:08:37.944Z,15.82
2023-04-18T07:11:05.532Z,11.27
2023-04-18T07:13:32.340Z,15.07
2023-04-18T07:15:59.459Z,13.00
2023-04-18T07:18:36.705Z,17.27
2023-04-18T07:21:07.893Z,14.05
2023-04-18T07:23:35.708Z,14.98
2023-04-18T07:26:03.096Z,14.55
2023-04-18T07:28:31.924Z,12.57
2023-04-18T07:30:59.414Z,11.95
2023-04-18T07:33:26.276Z,14.52
2023-04-18T07:35:53.239Z,13.32
2023-04-18T07:38:20.166Z,15.10
2023-04-18T07:40:46.880Z,11.93
2023-04-18T07:43:13.637Z,12.70
2023-04-18T07:45:43.221Z,14.75
2023-04-18T07:48:11.369Z,12.85
2023-04-18T07:50:38.276Z,14.77
2023-04-18T07:53:05.212Z,12.87
2023-04-18T07:55:32.072Z,11.90
2023-04-18T07:57:58.992Z,12.82
2023-04-18T08:00:26.380Z,10.00
2023-04-18T08:02:53.411Z,13.00
2023-04-18T08:05:20.637Z,13.33
2023-04-18T08:07:47.346Z,11.82
2023-04-18T08:10:14.209Z,9.30
2023-04-18T08:12:41.125Z,14.20
2023-04-18T08:15:08.709Z,11.55
2023-04-18T08:17:35.945Z,12.27
2023-04-18T08:20:07.287Z,12.52
2023-04-18T08:22:34.242Z,14.45
2023-04-18T08:25:05.329Z,10.02
2023-04-18T08:27:32.713Z,11.07
2023-04-18T08:29:59.845Z,12.10
2023-04-18T08:32:26.710Z,12.23
2023-04-18T08:34:53.414Z,9.63
2023-04-18T08:37:20.094Z,9.93
2023-04-18T08:39:46.810Z,11.25
2023-04-18T08:42:19.278Z,7.37
2023-04-18T08:44:47.317Z,16.23
2023-04-18T08:47:14.635Z,22.23
2023-04-18T08:49:42.583Z,12.80
2023-04-18T08:52:14.567Z,10.13
2023-04-18T08:54:42.837Z,9.90
2023-04-18T08:57:10.796Z,12.52
2023-04-18T08:59:37.509Z,10.05
2023-04-18T09:02:09.111Z,10.25
2023-04-18T09:04:44.736Z,12.02
2023-04-18T09:07:19.442Z,9.57
2023-04-18T09:09:54.429Z,10.35
2023-04-18T09:12:23.694Z,9.93
2023-04-18T09:14:52.361Z,10.98
2023-04-18T09:17:31.714Z,10.63
2023-04-18T09:20:00.151Z,12.40
2023-04-18T09:22:42.630Z,12.18
2023-04-18T09:25:09.728Z,10.68
2023-04-18T09:27:36.594Z,11.40
2023-04-18T09:30:03.705Z,9.73
2023-04-18T09:32:30.737Z,8.20
2023-04-18T09:35:04.440Z,9.38
2023-04-18T09:37:31.642Z,6.80
2023-04-18T09:39:58.483Z,8.68
2023-04-18T09:42:28.197Z,9.02
2023-04-18T09:45:07.194Z,7.70
2023-04-18T09:47:35.206Z,8.63
2023-04-18T09:50:07.383Z,7.78
2023-04-18T09:52:36.134Z,8.10
2023-04-18T09:55:04.991Z,9.93
2023-04-18T09:57:33.525Z,7.07
2023-04-18T10:00:13.454Z,8.93
2023-04-18T10:03:05.443Z,7.32
2023-04-18T10:05:34.789Z,5.68
2023-04-18T10:08:02.216Z,8.48
2023-04-18T10:10:29.381Z,6.00
2023-04-18T10:12:58.987Z,6.28
2023-04-18T10:15:27.866Z,8.65
2023-04-18T10:20:29.906Z,5.72
2023-04-18T10:22:58.123Z,7.30
2023-04-18T10:25:40.146Z,6.80
2023-04-18T10:28:09.883Z,6.53
2023-04-18T10:30:42.672Z,6.07
2023-04-18T10:36:05.149Z,5.13
2023-04-18T10:38:33.959Z,5.68
2023-04-18T10:41:24.764Z,6.13
2023-04-18T10:44:12.264Z,4.43
2023-04-18T10:46:48.407Z,4.95
2023-04-18T10:49:22.369Z,4.30
2023-04-18T10:52:02.287Z,5.35
2023-04-18T10:54:30.900Z,5.88
2023-04-18T10:56:59.659Z,6.45
2023-04-18T10:59:27.084Z,5.85
2023-04-18T11:01:57.302Z,8.43
2023-04-18T11:04:25.558Z,6.20
2023-04-18T11:06:57.113Z,5.40
2023-04-18T11:09:24.646Z,6.45
2023-04-18T11:12:06.208Z,6.95
2023-04-18T11:14:46.461Z,5.93
2023-04-18T11:17:27.350Z,9.13
2023-04-18T11:20:14.826Z,8.27
2023-04-18T11:22:51.580Z,7.55
2023-04-18T11:25:22.110Z,7.38
2023-04-18T11:27:55.654Z,7.30
2023-04-18T11:30:22.828Z,7.38
2023-04-18T11:32:49.720Z,8.43
2023-04-18T11:35:16.521Z,8.13
2023-04-18T11:37:45.873Z,7.20
2023-04-18T11:40:13.978Z,8.93
2023-04-18T11:42:41.556Z,8.15
2023-04-18T11:45:13.479Z,6.47
2023-04-18T11:47:42.842Z,6.78
2023-04-18T11:50:11.528Z,8.10
2023-04-18T11:52:40.948Z,5.97
2023-04-18T11:55:13.975Z,7.65
2023-04-18T11:57:41.867Z,6.68
2023-04-18T12:00:12.212Z,5.00
2023-04-18T12:02:43.964Z,5.43
2023-04-18T12:05:14.527Z,5.00
2023-04-18T12:07:44.383Z,5.28
2023-04-18T12:10:27.665Z,5.28
2023-04-18T12:12:56.868Z,6.80
2023-04-18T12:15:27.073Z,8.05
2023-04-18T12:17:59.492Z,7.80
2023-04-18T12:20:37.396Z,7.95
2023-04-18T12:23:05.050Z,6.57
2023-04-18T12:25:32.104Z,7.78
2023-04-18T12:28:12.836Z,7.05
2023-04-18T12:30:39.518Z,6.97
2023-04-18T12:33:06.711Z,7.70
2023-04-18T12:35:33.524Z,8.65
2023-04-18T12:38:02.382Z,8.63
2023-04-18T12:40:29.987Z,7.55
2023-04-18T12:42:56.898Z,8.57
2023-04-18T12:45:24.086Z,9.70
2023-04-18T12:47:52.317Z,9.98
2023-04-18T12:50:21.833Z,10.15
2023-04-18T12:52:49.104Z,8.95
2023-04-18T12:55:16.016Z,10.63
2023-04-18T12:57:43.663Z,10.18
2023-04-18T13:00:13.115Z,9.52
2023-04-18T13:02:43.063Z,8.77
2023-04-18T13:05:11.601Z,12.95
2023-04-18T13:07:40.490Z,10.67
2023-04-18T13:10:18.672Z,9.57
2023-04-18T13:12:46.861Z,11.15
2023-04-18T13:15:13.782Z,9.90
2023-04-18T13:17:40.649Z,10.30
2023-04-18T13:20:10.679Z,10.97
2023-04-18T13:22:38.530Z,9.80
2023-04-18T13:25:07.100Z,10.13
2023-04-18T13:27:34.289Z,10.65
2023-04-18T13:30:01.145Z,11.40
2023-04-18T13:32:28.117Z,11.90
2023-04-18T13:34:56.121Z,11.75
2023-04-18T13:37:23.666Z,14.23
2023-04-18T13:39:50.603Z,12.13
2023-04-18T13:42:19.282Z,12.60
2023-04-18T13:44:46.782Z,13.47
2023-04-18T13:47:13.569Z,13.20
2023-04-18T13:49:40.938Z,13.30
2023-04-18T13:52:07.841Z,12.75
2023-04-18T13:54:34.699Z,14.40
2023-04-18T13:57:11.392Z,12.43
2023-04-18T13:59:41.560Z,12.00
2023-04-18T14:02:10.964Z,12.07
2023-04-18T14:04:38.253Z,12.38
2023-04-18T14:07:06.354Z,13.35
2023-04-18T14:09:33.613Z,12.23
2023-04-18T14:12:00.438Z,10.95
2023-04-18T14:14:27.198Z,12.00
2023-04-18T14:16:54.105Z,12.23
2023-04-18T14:19:20.990Z,13.30
2023-04-18T14:21:48.628Z,76.50
2023-04-18T14:24:15.649Z,17.45
2023-04-18T14:26:42.433Z,13.80
2023-04-18T14:29:09.222Z,17.83
2023-04-18T14:31:36.616Z,13.55
2023-04-18T14:34:03.465Z,15.17
2023-04-18T14:36:30.930Z,17.92
2023-04-18T14:38:57.856Z,14.10
2023-04-18T14:41:24.594Z,14.40
2023-04-18T14:43:51.395Z,14.15
2023-04-18T14:46:18.246Z,13.80
2023-04-18T14:48:49.170Z,15.65
2023-04-18T14:51:16.716Z,14.60
2023-04-18T14:53:44.654Z,15.95
2023-04-18T14:56:11.764Z,14.98
2023-04-18T14:58:38.534Z,13.47
2023-04-18T15:01:05.620Z,17.52
2023-04-18T15:03:33.381Z,16.98
2023-04-18T15:06:00.423Z,13.32
2023-04-18T15:08:27.607Z,14.45
2023-04-18T15:10:55.423Z,17.23
2023-04-18T15:13:22.185Z,15.30
2023-04-18T15:15:53.265Z,14.23
2023-04-18T15:18:20.587Z,16.55
2023-04-18T15:20:47.567Z,13.25
2023-04-18T15:23:15.081Z,14.30
2023-04-18T15:25:42.679Z,12.00
2023-04-18T15:28:09.597Z,12.13
2023-04-18T15:30:36.516Z,13.73
2023-04-18T15:33:03.423Z,13.73
2023-04-18T15:35:30.264Z,11.90
2023-04-18T15:37:57.515Z,11.40
2023-04-18T15:40:24.481Z,10.63
2023-04-18T15:42:53.611Z,12.32
2023-04-18T15:45:21.886Z,11.57
2023-04-18T15:47:48.910Z,13.67
2023-04-18T15:50:16.565Z,12.45
2023-04-18T15:52:43.972Z,12.45
2023-04-18T15:55:13.350Z,12.48
2023-04-18T15:57:40.614Z,13.18
2023-04-18T16:00:16.060Z,12.90
2023-04-18T16:02:46.486Z,11.65
2023-04-18T16:05:13.943Z,12.20
2023-04-18T16:07:42.246Z,12.25
2023-04-18T16:10:10.891Z,14.35
2023-04-18T16:12:38.390Z,10.07
2023-04-18T16:15:09.329Z,11.55
2023-04-18T16:17:38.949Z,9.95
2023-04-18T16:20:08.339Z,11.38
2023-04-18T16:22:35.213Z,10.32
2023-04-18T16:25:02.179Z,11.33
2023-04-18T16:27:29.069Z,9.75
2023-04-18T16:29:56.036Z,9.55
2023-04-18T16:32:22.773Z,10.90
2023-04-18T16:34:49.875Z,10.07
2023-04-18T16:37:17.919Z,9.60
2023-04-18T16:39:44.665Z,9.35
2023-04-18T16:42:13.358Z,9.30
2023-04-18T16:44:41.710Z,9.23
2023-04-18T16:47:08.572Z,10.50
2023-04-18T16:49:35.667Z,10.40
2023-04-18T16:52:02.404Z,11.13
2023-04-18T16:54:29.577Z,10.68
2023-04-18T16:56:57.055Z,10.45
2023-04-18T16:59:23.931Z,9.55
2023-04-18T17:01:50.841Z,10.90
2023-04-18T17:04:17.839Z,11.15
2023-04-18T17:06:44.861Z,9.40
2023-04-18T17:09:13.696Z,9.35
2023-04-18T17:11:42.115Z,9.38
2023-04-18T17:14:09.328Z,10.17
2023-04-18T17:16:39.059Z,8.90
2023-04-18T17:19:06.006Z,10.00
2023-04-18T17:21:34.057Z,9.75
2023-04-18T17:24:03.836Z,10.18
2023-04-18T17:26:31.135Z,16.80
2023-04-18T17:28:58.217Z,10.07
2023-04-18T17:31:24.968Z,13.95
2023-04-18T17:33:51.790Z,12.02
2023-04-18T17:36:18.590Z,10.57
2023-04-18T17:38:48.955Z,9.93
2023-04-18T17:41:20.224Z,13.93
2023-04-18T17:43:48.571Z,11.32
2023-04-18T17:46:15.516Z,10.23
2023-04-18T17:48:42.455Z,10.85
2023-04-18T17:51:09.325Z,10.80
2023-04-18T17:53:36.038Z,10.77
2023-04-18T17:56:03.770Z,9.93
2023-04-18T17:58:30.609Z,11.35
2023-04-18T18:00:57.516Z,10.35
2023-04-18T18:03:24.701Z,9.67
2023-04-18T18:05:51.890Z,11.48
2023-04-18T18:08:18.597Z,10.90
2023-04-18T18:10:47.053Z,10.40
2023-04-18T18:13:13.975Z,9.93
2023-04-18T18:15:40.689Z,9.53
2023-04-18T18:18:07.534Z,9.95
2023-04-18T18:20:34.385Z,12.10
2023-04-18T18:23:01.780Z,12.05
2023-04-18T18:25:28.768Z,11.27
2023-04-18T18:27:55.651Z,12.00
2023-04-18T18:30:22.721Z,12.82
2023-04-18T18:32:49.644Z,11.95
2023-04-18T18:35:16.502Z,11.18
2023-04-18T18:37:43.228Z,12.27
2023-04-18T18:40:10.440Z,11.83
2023-04-18T18:42:37.529Z,11.20
2023-04-18T18:45:04.852Z,14.75
2023-04-18T18:47:31.793Z,14.30
2023-04-18T18:49:58.498Z,12.10
2023-04-18T18:52:27.980Z,15.20
2023-04-18T18:54:55.098Z,13.70
2023-04-18T18:57:22.034Z,13.07
2023-04-18T18:59:50.211Z,19.67
2023-04-18T19:02:17.429Z,13.15
2023-04-18T19:04:44.417Z,13.73
2023-04-18T19:07:11.236Z,13.43
2023-04-18T19:09:38.053Z,11.95
2023-04-18T19:12:05.648Z,12.63
2023-04-18T19:14:32.787Z,13.38
2023-04-18T19:16:59.586Z,20.10
2023-04-18T19:19:26.328Z,20.70
2023-04-18T19:21:53.126Z,16.33
2023-04-18T19:24:19.993Z,16.60
2023-04-18T19:26:46.760Z,19.50
2023-04-18T19:29:14.585Z,13.67
2023-04-18T19:31:43.770Z,16.65
2023-04-18T19:34:11.973Z,14.13
2023-04-18T19:36:38.974Z,15.43
2023-04-18T19:39:05.828Z,15.52
2023-04-18T19:41:32.619Z,18.07
2023-04-18T19:43:59.387Z,16.65
2023-04-18T19:46:26.320Z,16.48
2023-04-18T19:48:53.086Z,15.05
2023-04-18T19:51:19.807Z,15.57
2023-04-18T19:53:46.549Z,13.03
2023-04-18T19:56:14.896Z,15.15
2023-04-18T19:58:46.658Z,14.23
2023-04-18T20:01:18.887Z,13.98
2023-04-18T20:03:47.053Z,13.60
2023-04-18T20:06:14.300Z,14.00
2023-04-18T20:08:41.748Z,15.13
2023-04-18T20:11:10.466Z,15.20
2023-04-18T20:13:37.656Z,13.88
2023-04-18T20:16:05.397Z,14.20
2023-04-18T20:18:33.983Z,14.83
2023-04-18T20:21:00.698Z,16.60
2023-04-18T20:23:27.403Z,16.65
2023-04-18T20:25:54.203Z,14.73
2023-04-18T20:28:20.992Z,14.30
2023-04-18T20:30:48.125Z,15.03
2023-04-18T20:33:14.918Z,15.00
2023-04-18T20:35:41.685Z,14.13
2023-04-18T20:38:08.953Z,14.82
2023-04-18T20:40:38.746Z,14.10
2023-04-18T20:43:08.076Z,15.90
2023-04-18T20:45:37.567Z,17.17
2023-04-18T20:48:04.627Z,14.30
2023-04-18T20:50:31.514Z,14.32
2023-04-18T20:53:00.424Z,14.50
2023-04-18T20:55:27.272Z,13.17
2023-04-18T20:57:54.158Z,11.43
2023-04-18T21:00:20.894Z,18.15
2023-04-18T21:02:47.786Z,12.98
2023-04-18T21:05:14.625Z,11.80
2023-04-18T21:07:41.360Z,14.77
2023-04-18T21:10:08.423Z,12.65
2023-04-18T21:12:35.184Z,11.32
2023-04-18T21:15:02.208Z,10.77
2023-04-18T21:17:29.055Z,10.45
2023-04-18T21:19:55.832Z,12.43
2023-04-18T21:22:22.667Z,11.77
2023-04-18T21:24:49.463Z,10.48
2023-04-18T21:27:16.309Z,11.02
2023-04-18T21:29:43.090Z,12.50
2023-04-18T21:32:09.882Z,11.07
2023-04-18T21:34:36.806Z,11.38
2023-04-18T21:37:03.852Z,11.23
2023-04-18T21:39:31.240Z,11.55
2023-04-18T21:41:57.929Z,11.52
2023-04-18T21:44:24.850Z,12.17
2023-04-18T21:46:51.780Z,11.23
2023-04-18T21:49:18.584Z,11.02
2023-04-18T21:51:45.424Z,11.85
2023-04-18T21:54:12.424Z,9.68
2023-04-18T21:56:39.395Z,11.47
2023-04-18T21:59:06.069Z,12.95
2023-04-18T22:01:35.939Z,10.73
2023-04-18T22:04:02.914Z,11.68
2023-04-18T22:06:30.951Z,13.38
2023-04-18T22:08:58.251Z,10.23
2023-04-18T22:11:25.208Z,10.23
2023-04-18T22:13:54.214Z,10.13
2023-04-18T22:16:22.154Z,11.60
2023-04-18T22:18:49.340Z,11.48
2023-04-18T22:21:16.369Z,10.13
2023-04-18T22:23:43.132Z,9.90
2023-04-18T22:26:09.927Z,10.05
2023-04-18T22:28:37.074Z,10.80
2023-04-18T22:31:03.833Z,9.57
2023-04-18T22:33:30.698Z,10.57
2023-04-18T22:35:57.456Z,10.05
2023-04-18T22:38:25.178Z,10.30
2023-04-18T22:40:52.008Z,11.23
2023-04-18T22:43:23.748Z,9.75
2023-04-18T22:45:51.517Z,10.77
2023-04-18T22:48:18.481Z,10.77
2023-04-18T22:50:46.224Z,11.60
2023-04-18T22:53:15.246Z,10.95
2023-04-18T22:55:43.855Z,11.55
2023-04-18T22:58:11.714Z,9.83
2023-04-18T23:00:38.519Z,10.68
2023-04-18T23:03:05.600Z,11.63
2023-04-18T23:05:33.314Z,11.75
2023-04-18T23:08:00.600Z,10.63
2023-04-18T23:10:28.066Z,11.30
2023-04-18T23:12:54.935Z,10.75
2023-04-18T23:15:22.867Z,10.52
2023-04-18T23:17:54.788Z,11.05
2023-04-18T23:20:23.802Z,10.20
2023-04-18T23:22:51.698Z,11.43
2023-04-18T23:25:19.656Z,11.30
2023-04-18T23:27:46.946Z,12.15
2023-04-18T23:30:13.875Z,11.02
2023-04-18T23:32:40.693Z,12.60
2023-04-18T23:35:07.842Z,9.63
2023-04-18T23:37:34.535Z,13.30
2023-04-18T23:40:01.346Z,11.35
2023-04-18T23:42:28.105Z,12.20
2023-04-18T23:44:54.968Z,12.25
2023-04-18T23:47:21.988Z,14.10
2023-04-18T23:49:48.773Z,12.35
2023-04-18T23:52:15.652Z,12.82
2023-04-18T23:54:42.404Z,14.23
2023-04-18T23:57:09.119Z,13.70
2023-04-18T23:59:35.790Z,13.53
